Yeager Airport
KCRW : rendu visible

Aérodrome :











RETROUVEZ-NOUS SUR...

 
LOGIN :

S'inscrire | Disclaimer

   EN    FR    IT 

 









Légende :    VFR   VFR Marginal   IFR   IFR Intensif   IFR Très Intensif
Visi : 
Plafond : 
>= 8 km
>= 3000ft
5 à 8 km
1000 à 3000 ft
1500m à 5 km
500 à 1000 ft
800 à 1500m
200 à 500 ft
< 800m
< 200 ft
Symboles :   Orages  Brouillard  Fortes neiges  Fortes précipitations  Vent > 20 kt






- Altitude de l'aérodrome : 981 ft
- Code IATA : CRW


KCRW - Yeager

DERNIER METAR :
  • 250354Z 00000KT 10SM BKN250 07/01 A3011 RMK AO2 SLP198 T00720011 $

METARs EXPIRÉS :
  • 250254Z 00000KT 10SM BKN250 06/03 A3011 RMK AO2 SLP201 T00560028 58017 $
  • 250154Z 00000KT 10SM BKN250 05/03 A3013 RMK AO2 SLP210 T00500028 $

TAF KCRW
Valide du 25 à 03h jusqu'au 26 à 00h UTC


250255Z 2503/2524 09003KT P6SM SCT120 BKN250
FM251700 19011KT P6SM BKN060 BKN100
FM252100 18008KT P6SM -RA OVC045
FM252300 17008KT 6SM -RA BKN030
FIR KZID / Amérique du Nord



MET'MAP, la Météo Aéronautique d'un coup d'oeil ! - Copyright ORBIFLY Décembre 2007 - Disclaimer

ORBIFLY MET'MAP TEAM :

Programmation & Développement : Alexandra Zaïnal
Sur une idée originale de : Baudouin d'Aumeries
Assistance à la programmation : Marc-Olivier Méhu
Soutien technique & logistique : Manuel Goepfert

Contact : metmap@orbifly.com




SOURCES & CREDITS :

   NOAA       Earth
Advisory